createdAt,value
2022-12-09T00:00:20.414Z,5.20
2022-12-09T00:02:48.523Z,5.20
2022-12-09T00:05:17.490Z,5.20
2022-12-09T00:07:45.445Z,5.20
2022-12-09T00:10:13.449Z,5.20
2022-12-09T00:12:41.210Z,5.20
2022-12-09T00:15:11.144Z,5.20
2022-12-09T00:17:38.954Z,5.20
2022-12-09T00:20:08.722Z,5.20
2022-12-09T00:22:36.936Z,5.20
2022-12-09T00:25:05.031Z,5.20
2022-12-09T00:27:32.826Z,5.20
2022-12-09T00:30:00.648Z,5.20
2022-12-09T00:32:30.195Z,5.20
2022-12-09T00:34:58.063Z,6.40
2022-12-09T00:37:25.950Z,5.20
2022-12-09T00:39:53.775Z,5.30
2022-12-09T00:42:21.774Z,5.20
2022-12-09T00:44:49.791Z,5.20
2022-12-09T00:47:17.662Z,5.20
2022-12-09T00:49:46.893Z,5.20
2022-12-09T00:52:15.044Z,5.20
2022-12-09T00:54:43.540Z,5.20
2022-12-09T00:57:11.401Z,5.30
2022-12-09T00:59:39.167Z,5.20
2022-12-09T05:01:30.032Z,4.80
2022-12-09T05:04:00.502Z,4.80
2022-12-09T05:06:29.430Z,4.70
2022-12-09T05:08:57.951Z,4.70
2022-12-09T05:11:26.832Z,4.70
2022-12-09T05:13:55.922Z,4.70
2022-12-09T05:18:54.003Z,4.70
2022-12-09T05:21:23.132Z,4.60
2022-12-09T05:23:51.135Z,4.60
2022-12-09T05:26:21.372Z,4.60
2022-12-09T05:28:49.935Z,4.60
2022-12-09T05:31:20.873Z,4.60
2022-12-09T05:33:52.283Z,4.70
2022-12-09T05:36:22.464Z,4.60
2022-12-09T05:38:51.417Z,4.60
2022-12-09T05:41:19.746Z,4.60
2022-12-09T05:43:48.384Z,4.60
2022-12-09T05:46:16.737Z,4.70
2022-12-09T05:48:45.091Z,4.70
2022-12-09T05:51:17.963Z,4.70
2022-12-09T05:53:45.837Z,4.70
2022-12-09T05:56:17.070Z,4.70
2022-12-09T05:58:45.035Z,4.60
2022-12-09T06:01:13.684Z,4.60
2022-12-09T06:03:42.160Z,4.00
2022-12-09T06:06:11.778Z,4.60
2022-12-09T06:08:42.244Z,4.60
2022-12-09T06:11:13.848Z,4.60
2022-12-09T06:13:42.262Z,4.60
2022-12-09T06:16:11.334Z,4.60
2022-12-09T06:18:39.648Z,4.60
2022-12-09T06:21:09.268Z,4.50
2022-12-09T06:23:39.064Z,4.60
2022-12-09T06:26:10.526Z,4.50
2022-12-09T06:28:38.297Z,4.50
2022-12-09T06:31:06.603Z,4.50
2022-12-09T06:33:54.134Z,4.50
2022-12-09T06:36:22.694Z,4.50
2022-12-09T06:38:50.739Z,4.40
2022-12-09T06:41:20.101Z,4.30
2022-12-09T06:43:48.271Z,4.30
2022-12-09T06:46:19.409Z,4.40
2022-12-09T06:48:48.177Z,4.40
2022-12-09T06:51:17.074Z,4.40
2022-12-09T06:53:45.531Z,4.40
2022-12-09T06:58:45.932Z,4.40
2022-12-09T07:01:16.517Z,4.40
2022-12-09T07:03:46.968Z,4.30
2022-12-09T07:06:24.383Z,4.20
2022-12-09T07:08:52.670Z,4.20
2022-12-09T07:11:20.921Z,3.70
2022-12-09T07:13:50.939Z,4.30
2022-12-09T07:16:19.321Z,4.40
2022-12-09T07:18:47.627Z,4.40
2022-12-09T07:21:17.585Z,4.40
2022-12-09T07:23:46.050Z,5.10
2022-12-09T07:26:14.376Z,4.40
2022-12-09T07:28:43.596Z,4.40
2022-12-09T07:31:20.226Z,4.40
2022-12-09T07:33:49.810Z,4.50
2022-12-09T07:36:21.331Z,4.40
2022-12-09T07:38:49.792Z,4.40
2022-12-09T07:41:19.311Z,4.40
2022-12-09T07:43:48.167Z,4.40
2022-12-09T07:46:20.712Z,4.40
2022-12-09T07:48:49.647Z,4.40
2022-12-09T07:51:18.634Z,4.40
2022-12-09T07:53:47.753Z,4.40
2022-12-09T07:56:17.605Z,4.40
2022-12-09T07:58:47.998Z,4.40
2022-12-09T08:01:18.048Z,4.40
2022-12-09T08:03:48.519Z,4.30
2022-12-09T08:06:19.436Z,4.30
2022-12-09T08:08:48.417Z,4.20
2022-12-09T08:11:20.597Z,4.20
2022-12-09T08:13:49.047Z,4.20
2022-12-09T08:16:19.620Z,4.10
2022-12-09T08:18:49.748Z,4.20
2022-12-09T08:21:19.897Z,4.10
2022-12-09T08:23:48.806Z,4.10
2022-12-09T08:26:19.248Z,4.00
2022-12-09T08:28:47.772Z,4.00
2022-12-09T08:31:18.936Z,3.90
2022-12-09T08:33:49.185Z,3.90
2022-12-09T08:36:19.212Z,3.80
2022-12-09T08:38:48.098Z,3.80
2022-12-09T08:41:18.882Z,3.80
2022-12-09T08:43:48.420Z,3.80
2022-12-09T08:46:17.043Z,3.80
2022-12-09T08:48:45.048Z,3.80
2022-12-09T08:51:15.188Z,3.60
2022-12-09T08:56:13.770Z,3.80
2022-12-09T08:58:42.589Z,3.80
2022-12-09T09:01:16.540Z,3.80
2022-12-09T09:03:44.949Z,3.80
2022-12-09T09:06:15.338Z,3.80
2022-12-09T09:08:44.137Z,3.80
2022-12-09T09:11:14.430Z,3.80
2022-12-09T09:13:44.323Z,3.80
2022-12-09T09:16:14.953Z,3.80
2022-12-09T09:18:43.698Z,3.80
2022-12-09T09:21:15.533Z,3.80
2022-12-09T09:23:44.607Z,3.80
2022-12-09T09:26:13.799Z,3.80
2022-12-09T09:28:42.510Z,3.80
2022-12-09T09:31:15.957Z,3.80
2022-12-09T09:33:44.455Z,3.80
2022-12-09T09:36:16.946Z,3.80
2022-12-09T09:38:44.785Z,3.80
2022-12-09T09:41:21.810Z,3.80
2022-12-09T09:43:50.020Z,3.80
2022-12-09T09:46:23.603Z,3.90
2022-12-09T09:48:52.948Z,3.90
2022-12-09T09:51:23.026Z,3.90
2022-12-09T09:53:53.412Z,3.90
2022-12-09T09:56:29.266Z,4.00
2022-12-09T09:59:09.548Z,4.00
2022-12-09T10:01:38.819Z,3.90
2022-12-09T10:04:14.618Z,4.00
2022-12-09T10:06:50.752Z,4.10
2022-12-09T10:09:23.906Z,4.10
2022-12-09T10:11:59.531Z,4.20
2022-12-09T10:14:42.905Z,4.20
2022-12-09T10:17:22.392Z,4.30
2022-12-09T10:19:54.637Z,4.40
2022-12-09T10:22:28.064Z,4.40
2022-12-09T10:24:58.275Z,4.40
2022-12-09T10:27:32.297Z,4.50
2022-12-09T10:30:03.685Z,4.50
2022-12-09T10:32:34.428Z,4.50
2022-12-09T10:35:03.600Z,4.50
2022-12-09T10:37:37.616Z,4.60
2022-12-09T10:40:21.220Z,4.60
2022-12-09T10:43:08.828Z,4.60
2022-12-09T10:46:15.520Z,4.60
2022-12-09T10:51:05.262Z,4.60
2022-12-09T10:53:36.828Z,4.60
2022-12-09T10:56:05.754Z,4.60
2022-12-09T10:58:33.958Z,4.60
2022-12-09T11:01:06.100Z,4.60
2022-12-09T11:03:37.199Z,4.70
2022-12-09T11:06:17.402Z,4.70
2022-12-09T11:08:53.505Z,4.70
2022-12-09T11:11:25.347Z,4.70
2022-12-09T11:13:53.643Z,4.70
2022-12-09T11:16:28.839Z,4.70
2022-12-09T11:18:57.001Z,4.70
2022-12-09T11:21:35.893Z,4.70
2022-12-09T11:24:07.786Z,4.60
2022-12-09T11:26:39.311Z,4.60
2022-12-09T11:29:16.558Z,4.60
2022-12-09T11:31:49.933Z,4.60
2022-12-09T11:34:24.074Z,4.60
2022-12-09T11:36:54.621Z,4.60
2022-12-09T11:39:30.175Z,4.60
2022-12-09T11:42:19.029Z,4.60
2022-12-09T11:44:56.502Z,4.50
2022-12-09T11:47:36.443Z,4.40
2022-12-09T11:50:18.256Z,4.40
2022-12-09T11:52:46.776Z,4.30
2022-12-09T11:55:19.910Z,4.30
2022-12-09T11:57:52.307Z,4.40
2022-12-09T12:00:25.685Z,4.40
2022-12-09T12:03:02.105Z,4.50
2022-12-09T12:05:36.997Z,4.50
2022-12-09T12:08:14.802Z,4.50
2022-12-09T12:10:48.589Z,4.50
2022-12-09T12:13:21.855Z,4.50
2022-12-09T12:15:54.915Z,4.60
2022-12-09T12:18:24.228Z,4.60
2022-12-09T12:21:15.738Z,4.60
2022-12-09T12:26:38.573Z,4.60
2022-12-09T12:29:35.103Z,4.60
2022-12-09T12:32:28.196Z,4.70
2022-12-09T12:35:18.750Z,4.80
2022-12-09T12:37:59.803Z,4.80
2022-12-09T12:40:37.775Z,4.80
2022-12-09T12:43:56.142Z,4.70
2022-12-09T12:46:42.511Z,4.70
2022-12-09T12:49:27.845Z,4.80
2022-12-09T12:52:12.756Z,4.80
2022-12-09T12:54:56.871Z,4.80
2022-12-09T12:57:37.895Z,4.80
2022-12-09T13:00:13.274Z,4.80
2022-12-09T13:02:51.629Z,4.70
2022-12-09T13:05:33.099Z,4.70
2022-12-09T13:08:07.315Z,4.70
2022-12-09T13:10:39.988Z,4.70
2022-12-09T13:13:17.404Z,4.80
2022-12-09T13:15:59.952Z,4.80
2022-12-09T13:18:50.997Z,4.70
2022-12-09T13:21:19.750Z,4.70
2022-12-09T13:23:59.444Z,4.70
2022-12-09T13:26:40.604Z,4.60
2022-12-09T13:29:20.355Z,4.60
2022-12-09T13:31:57.603Z,4.50
2022-12-09T13:34:37.314Z,4.60
2022-12-09T13:37:05.811Z,4.70
2022-12-09T13:39:57.895Z,4.70
2022-12-09T13:42:56.491Z,4.70
2022-12-09T13:45:34.327Z,4.70
2022-12-09T13:48:13.320Z,4.80
2022-12-09T13:50:56.042Z,4.80
2022-12-09T13:53:27.357Z,4.80
2022-12-09T13:56:02.924Z,4.80
2022-12-09T13:58:45.372Z,4.80
2022-12-09T14:01:22.612Z,4.80
2022-12-09T14:04:02.663Z,4.80
2022-12-09T14:06:34.111Z,4.80
2022-12-09T14:09:05.252Z,4.80
2022-12-09T14:11:48.695Z,4.70
2022-12-09T14:14:53.538Z,4.70
2022-12-09T14:18:00.925Z,4.80
2022-12-09T14:20:39.163Z,4.80
2022-12-09T14:23:16.714Z,4.80
2022-12-09T14:28:59.161Z,4.80
2022-12-09T14:34:35.793Z,4.70
2022-12-09T14:37:28.391Z,4.60
2022-12-09T14:40:02.736Z,4.60
2022-12-09T14:42:43.830Z,4.60
2022-12-09T14:45:25.468Z,4.50
2022-12-09T14:47:53.686Z,4.50
2022-12-09T14:50:24.161Z,4.50
2022-12-09T14:53:05.697Z,4.50
2022-12-09T14:55:41.052Z,4.40
2022-12-09T14:58:18.997Z,4.40
2022-12-09T15:00:47.329Z,4.30
2022-12-09T15:06:18.033Z,4.20
2022-12-09T15:08:47.930Z,4.10
2022-12-09T15:11:18.540Z,4.10
2022-12-09T15:13:48.463Z,4.10
2022-12-09T15:16:20.758Z,4.00
2022-12-09T15:18:49.815Z,4.00
2022-12-09T15:21:29.748Z,3.90
2022-12-09T15:23:59.722Z,3.80
2022-12-09T15:26:29.770Z,3.70
2022-12-09T15:28:59.521Z,3.70
2022-12-09T15:31:32.322Z,3.60
2022-12-09T15:34:08.833Z,3.50
2022-12-09T15:36:43.168Z,3.50
2022-12-09T15:39:20.054Z,3.40
2022-12-09T15:42:10.804Z,3.40
2022-12-09T15:45:14.953Z,3.30
2022-12-09T15:47:46.008Z,3.30
2022-12-09T15:52:51.624Z,3.20
2022-12-09T15:55:32.350Z,3.20
2022-12-09T15:58:04.760Z,3.20
2022-12-09T16:00:37.614Z,3.20
2022-12-09T16:03:07.352Z,3.10
2022-12-09T16:08:11.751Z,3.10
2022-12-09T16:10:50.163Z,3.10
2022-12-09T16:13:21.221Z,3.10
2022-12-09T16:15:56.367Z,3.00
2022-12-09T16:21:25.293Z,3.10
2022-12-09T16:26:33.307Z,3.10
2022-12-09T16:29:08.939Z,3.10
2022-12-09T16:31:40.085Z,3.10
2022-12-09T16:34:21.023Z,3.20
2022-12-09T16:36:55.772Z,3.20
2022-12-09T16:39:44.211Z,3.20
2022-12-09T16:50:32.172Z,3.20
2022-12-09T17:00:55.881Z,3.10
2022-12-09T17:03:33.543Z,3.10
2022-12-09T17:06:02.089Z,3.10
2022-12-09T17:08:35.010Z,3.10
2022-12-09T17:11:09.475Z,3.10
2022-12-09T17:13:39.192Z,3.10
2022-12-09T17:16:10.158Z,3.10
2022-12-09T17:21:10.029Z,3.10
2022-12-09T17:23:40.161Z,3.10
2022-12-09T17:26:10.264Z,3.10
2022-12-09T17:28:40.004Z,3.10
2022-12-09T17:31:09.222Z,3.20
2022-12-09T17:33:37.256Z,3.20
2022-12-09T17:36:05.555Z,3.10
2022-12-09T17:38:33.495Z,3.20
2022-12-09T17:41:05.015Z,3.20
2022-12-09T17:46:05.196Z,3.10
2022-12-09T17:48:34.520Z,3.10
2022-12-09T17:51:06.701Z,3.10
2022-12-09T17:56:08.512Z,3.00
2022-12-09T17:58:36.432Z,4.20
2022-12-09T18:01:06.362Z,2.90
2022-12-09T18:03:54.802Z,2.90
2022-12-09T18:06:22.243Z,2.90
2022-12-09T18:11:18.820Z,2.90
2022-12-09T18:16:17.232Z,2.80
2022-12-09T18:18:45.604Z,2.80
2022-12-09T18:21:16.191Z,2.80
2022-12-09T18:26:16.330Z,2.80
2022-12-09T18:28:44.790Z,2.80
2022-12-09T18:31:15.094Z,2.80
2022-12-09T18:33:44.540Z,2.90
2022-12-09T18:36:14.190Z,3.00
2022-12-09T18:38:42.772Z,2.90
2022-12-09T18:41:12.230Z,2.80
2022-12-09T18:43:42.405Z,2.80
2022-12-09T18:46:12.190Z,2.70
2022-12-09T18:48:41.097Z,2.70
2022-12-09T18:51:16.968Z,1.80
2022-12-09T18:53:45.179Z,2.60
2022-12-09T18:56:13.380Z,2.60
2022-12-09T18:59:05.335Z,2.60
2022-12-09T19:01:31.887Z,2.60
2022-12-09T19:04:02.493Z,2.50
2022-12-09T19:09:02.600Z,2.50
2022-12-09T19:11:32.093Z,2.50
2022-12-09T19:14:01.416Z,2.50
2022-12-09T19:16:30.656Z,2.50
2022-12-09T19:19:01.440Z,2.50
2022-12-09T19:21:34.891Z,2.50
2022-12-09T19:26:32.704Z,2.40
2022-12-09T19:29:02.585Z,2.40
2022-12-09T19:31:33.405Z,2.40
2022-12-09T19:34:03.444Z,2.40
2022-12-09T19:36:33.834Z,2.40
2022-12-09T19:39:05.662Z,2.40
2022-12-09T19:41:33.662Z,2.40
2022-12-09T19:44:02.923Z,2.30
2022-12-09T19:46:30.846Z,2.30
2022-12-09T19:48:59.467Z,2.30
2022-12-09T19:51:28.274Z,2.20
2022-12-09T19:53:57.445Z,2.10
2022-12-09T19:56:27.302Z,2.20
2022-12-09T19:58:56.142Z,2.20
2022-12-09T20:01:26.048Z,2.20
2022-12-09T20:03:58.470Z,2.20
2022-12-09T20:06:27.274Z,2.20
2022-12-09T20:08:55.764Z,2.20
2022-12-09T20:11:26.586Z,2.20
2022-12-09T20:13:54.664Z,2.20
2022-12-09T20:16:23.934Z,2.20
2022-12-09T20:18:52.348Z,2.20
2022-12-09T20:21:21.544Z,2.30
2022-12-09T20:23:50.393Z,2.30
2022-12-09T20:26:19.814Z,2.30
2022-12-09T20:28:50.521Z,2.30
2022-12-09T20:31:20.351Z,2.20
2022-12-09T20:33:49.239Z,2.20
2022-12-09T20:36:20.094Z,2.30
2022-12-09T20:38:50.321Z,2.30
2022-12-09T20:43:49.427Z,2.30
2022-12-09T20:46:19.361Z,2.30
2022-12-09T20:48:47.884Z,2.30
2022-12-09T20:51:18.845Z,2.30
2022-12-09T20:53:48.143Z,2.30
2022-12-09T20:56:17.407Z,2.30
2022-12-09T20:58:46.405Z,2.30
2022-12-09T21:01:17.694Z,2.30
2022-12-09T21:06:16.154Z,2.30
2022-12-09T21:08:44.896Z,2.30
2022-12-09T21:11:15.039Z,2.30
2022-12-09T21:13:44.973Z,2.30
2022-12-09T21:16:20.559Z,2.30
2022-12-09T21:18:49.359Z,2.30
2022-12-09T21:21:18.305Z,2.40
2022-12-09T21:23:46.480Z,2.40
2022-12-09T21:26:16.895Z,2.40
2022-12-09T21:28:46.561Z,2.40
2022-12-09T21:31:18.442Z,2.40
2022-12-09T21:33:47.918Z,2.40
2022-12-09T21:36:18.082Z,2.40
2022-12-09T21:38:46.170Z,2.40
2022-12-09T21:41:16.127Z,2.40
2022-12-09T21:43:44.922Z,2.40
2022-12-09T21:46:16.096Z,2.50
2022-12-09T21:48:51.567Z,2.50
2022-12-09T21:51:20.766Z,2.50
2022-12-09T21:53:49.252Z,2.40
2022-12-09T21:56:19.733Z,2.40
2022-12-09T21:58:49.741Z,2.40
2022-12-09T22:01:21.020Z,2.40
2022-12-09T22:08:47.676Z,2.20
2022-12-09T22:11:18.049Z,2.20
2022-12-09T22:13:46.401Z,2.20
2022-12-09T22:16:16.733Z,2.30
2022-12-09T22:18:46.079Z,2.30
2022-12-09T22:21:26.043Z,2.30
2022-12-09T22:23:54.829Z,2.30
2022-12-09T22:26:23.667Z,2.40
2022-12-09T22:28:51.950Z,2.50
2022-12-09T22:31:22.323Z,2.50
2022-12-09T22:33:51.606Z,2.40
2022-12-09T22:36:21.290Z,2.40
2022-12-09T22:38:49.529Z,2.40
2022-12-09T22:41:19.373Z,2.40
2022-12-09T22:43:48.177Z,2.50
2022-12-09T22:46:18.138Z,2.50
2022-12-09T22:48:46.311Z,2.40
2022-12-09T22:51:15.974Z,2.60
2022-12-09T22:53:45.353Z,2.40
2022-12-09T22:56:13.600Z,2.40
2022-12-09T23:01:11.882Z,2.30
2022-12-09T23:03:40.157Z,2.20
2022-12-09T23:06:08.893Z,2.20
2022-12-09T23:08:38.296Z,2.20
2022-12-09T23:11:09.478Z,2.20
2022-12-09T23:13:41.233Z,2.20
2022-12-09T23:16:12.524Z,2.20
2022-12-09T23:18:41.156Z,2.20
2022-12-09T23:21:12.756Z,2.20
2022-12-09T23:23:41.527Z,2.10
2022-12-09T23:26:13.499Z,2.10
2022-12-09T23:28:42.986Z,2.10
2022-12-09T23:31:12.813Z,2.10
2022-12-09T23:33:43.287Z,2.00
2022-12-09T23:36:14.113Z,2.00
2022-12-09T23:38:42.717Z,2.00
2022-12-09T23:41:13.146Z,2.00
2022-12-09T23:43:41.327Z,2.00
2022-12-09T23:46:15.408Z,2.00
2022-12-09T23:48:44.096Z,2.00
2022-12-09T23:51:13.008Z,2.00
2022-12-09T23:53:42.180Z,2.00
2022-12-09T23:56:14.215Z,1.90
2022-12-09T23:58:43.151Z,1.90
